sensor_id;sensor_type;location;lat;lon;timestamp;temperature;humidity
5689;DHT22;2869;50.432;8.680;2023-04-24T00:00:03;10.50;99.90
5689;DHT22;2869;50.432;8.680;2023-04-24T00:02:31;10.50;99.90
5689;DHT22;2869;50.432;8.680;2023-04-24T00:04:58;10.50;99.90
5689;DHT22;2869;50.432;8.680;2023-04-24T00:07:29;10.50;99.90
5689;DHT22;2869;50.432;8.680;2023-04-24T00:09:56;10.40;99.90
5689;DHT22;2869;50.432;8.680;2023-04-24T00:12:23;10.40;99.90
5689;DHT22;2869;50.432;8.680;2023-04-24T00:14:50;10.30;99.90
5689;DHT22;2869;50.432;8.680;2023-04-24T00:17:16;10.30;99.90
5689;DHT22;2869;50.432;8.680;2023-04-24T00:19:45;10.20;99.90
5689;DHT22;2869;50.432;8.680;2023-04-24T00:22:12;10.20;99.90
5689;DHT22;2869;50.432;8.680;2023-04-24T00:24:41;10.10;99.90
5689;DHT22;2869;50.432;8.680;2023-04-24T00:27:07;10.10;99.90
5689;DHT22;2869;50.432;8.680;2023-04-24T00:29:34;10.10;99.90
5689;DHT22;2869;50.432;8.680;2023-04-24T00:32:01;10.10;99.90
5689;DHT22;2869;50.432;8.680;2023-04-24T00:34:27;10.00;99.90
5689;DHT22;2869;50.432;8.680;2023-04-24T00:36:54;10.10;99.90
5689;DHT22;2869;50.432;8.680;2023-04-24T00:39:20;10.10;99.90
5689;DHT22;2869;50.432;8.680;2023-04-24T00:41:50;10.10;99.90
5689;DHT22;2869;50.432;8.680;2023-04-24T00:44:17;10.20;99.90
5689;DHT22;2869;50.432;8.680;2023-04-24T00:46:45;10.30;99.90
5689;DHT22;2869;50.432;8.680;2023-04-24T00:49:12;10.30;99.90
5689;DHT22;2869;50.432;8.680;2023-04-24T00:51:39;10.40;99.90
5689;DHT22;2869;50.432;8.680;2023-04-24T00:54:10;10.40;99.90
5689;DHT22;2869;50.432;8.680;2023-04-24T00:56:37;10.40;99.90
5689;DHT22;2869;50.432;8.680;2023-04-24T00:59:05;10.40;99.90
5689;DHT22;2869;50.432;8.680;2023-04-24T01:01:32;10.50;99.90
5689;DHT22;2869;50.432;8.680;2023-04-24T01:03:59;10.50;99.90
5689;DHT22;2869;50.432;8.680;2023-04-24T01:06:28;10.50;99.90
5689;DHT22;2869;50.432;8.680;2023-04-24T01:08:56;10.50;99.90
5689;DHT22;2869;50.432;8.680;2023-04-24T01:11:24;10.50;99.90
5689;DHT22;2869;50.432;8.680;2023-04-24T01:13:51;10.60;99.90
5689;DHT22;2869;50.432;8.680;2023-04-24T01:16:19;10.60;99.90
5689;DHT22;2869;50.432;8.680;2023-04-24T01:18:46;10.60;99.90
5689;DHT22;2869;50.432;8.680;2023-04-24T01:21:14;10.60;99.90
5689;DHT22;2869;50.432;8.680;2023-04-24T01:23:43;10.60;99.90
5689;DHT22;2869;50.432;8.680;2023-04-24T01:26:10;10.60;99.90
5689;DHT22;2869;50.432;8.680;2023-04-24T01:28:37;10.50;99.90
5689;DHT22;2869;50.432;8.680;2023-04-24T01:31:04;10.50;99.90
5689;DHT22;2869;50.432;8.680;2023-04-24T01:33:31;10.60;99.90
5689;DHT22;2869;50.432;8.680;2023-04-24T01:35:58;10.50;99.90
5689;DHT22;2869;50.432;8.680;2023-04-24T01:38:25;10.50;99.90
5689;DHT22;2869;50.432;8.680;2023-04-24T01:40:53;10.50;99.90
5689;DHT22;2869;50.432;8.680;2023-04-24T01:43:20;10.50;99.90
5689;DHT22;2869;50.432;8.680;2023-04-24T01:45:46;10.50;99.90
5689;DHT22;2869;50.432;8.680;2023-04-24T01:48:13;10.50;99.90
5689;DHT22;2869;50.432;8.680;2023-04-24T01:50:40;10.50;99.90
5689;DHT22;2869;50.432;8.680;2023-04-24T01:53:06;10.50;99.90
5689;DHT22;2869;50.432;8.680;2023-04-24T01:55:33;10.50;99.90
5689;DHT22;2869;50.432;8.680;2023-04-24T01:58:01;10.50;99.90
5689;DHT22;2869;50.432;8.680;2023-04-24T02:00:28;10.50;99.90
5689;DHT22;2869;50.432;8.680;2023-04-24T02:02:55;10.50;99.90
5689;DHT22;2869;50.432;8.680;2023-04-24T02:05:22;10.60;99.90
5689;DHT22;2869;50.432;8.680;2023-04-24T02:07:48;10.60;99.90
5689;DHT22;2869;50.432;8.680;2023-04-24T02:10:15;10.60;99.90
5689;DHT22;2869;50.432;8.680;2023-04-24T02:12:42;10.50;99.90
5689;DHT22;2869;50.432;8.680;2023-04-24T02:15:10;10.50;99.90
5689;DHT22;2869;50.432;8.680;2023-04-24T02:17:37;10.50;99.90
5689;DHT22;2869;50.432;8.680;2023-04-24T02:20:06;10.50;99.90
5689;DHT22;2869;50.432;8.680;2023-04-24T02:22:33;10.40;99.90
5689;DHT22;2869;50.432;8.680;2023-04-24T02:25:00;10.40;99.90
5689;DHT22;2869;50.432;8.680;2023-04-24T02:27:27;10.40;99.90
5689;DHT22;2869;50.432;8.680;2023-04-24T02:29:53;10.40;99.90
5689;DHT22;2869;50.432;8.680;2023-04-24T02:32:22;10.40;99.90
5689;DHT22;2869;50.432;8.680;2023-04-24T02:34:48;10.40;99.90
5689;DHT22;2869;50.432;8.680;2023-04-24T02:37:15;10.40;99.90
5689;DHT22;2869;50.432;8.680;2023-04-24T02:39:42;10.30;99.90
5689;DHT22;2869;50.432;8.680;2023-04-24T02:42:09;10.30;99.90
5689;DHT22;2869;50.432;8.680;2023-04-24T02:44:36;10.20;99.90
5689;DHT22;2869;50.432;8.680;2023-04-24T02:47:02;10.20;99.90
5689;DHT22;2869;50.432;8.680;2023-04-24T02:49:30;10.10;99.90
5689;DHT22;2869;50.432;8.680;2023-04-24T02:51:57;10.10;99.90
5689;DHT22;2869;50.432;8.680;2023-04-24T02:54:23;10.10;99.90
5689;DHT22;2869;50.432;8.680;2023-04-24T02:56:50;10.10;99.90
5689;DHT22;2869;50.432;8.680;2023-04-24T02:59:17;10.10;99.90
5689;DHT22;2869;50.432;8.680;2023-04-24T03:01:43;10.00;99.90
5689;DHT22;2869;50.432;8.680;2023-04-24T03:04:10;10.10;99.90
5689;DHT22;2869;50.432;8.680;2023-04-24T03:06:38;10.10;99.90
5689;DHT22;2869;50.432;8.680;2023-04-24T03:09:05;10.00;99.90
5689;DHT22;2869;50.432;8.680;2023-04-24T03:11:31;10.00;99.90
5689;DHT22;2869;50.432;8.680;2023-04-24T03:13:58;10.00;99.90
5689;DHT22;2869;50.432;8.680;2023-04-24T03:16:24;10.00;99.90
5689;DHT22;2869;50.432;8.680;2023-04-24T03:18:51;10.00;99.90
5689;DHT22;2869;50.432;8.680;2023-04-24T03:21:18;10.00;99.90
5689;DHT22;2869;50.432;8.680;2023-04-24T03:23:46;10.00;99.90
5689;DHT22;2869;50.432;8.680;2023-04-24T03:26:12;10.00;99.90
5689;DHT22;2869;50.432;8.680;2023-04-24T03:28:39;10.00;99.90
5689;DHT22;2869;50.432;8.680;2023-04-24T03:31:06;10.00;99.90
5689;DHT22;2869;50.432;8.680;2023-04-24T03:33:32;10.00;99.90
5689;DHT22;2869;50.432;8.680;2023-04-24T03:35:59;10.00;99.90
5689;DHT22;2869;50.432;8.680;2023-04-24T03:38:26;9.90;99.90
5689;DHT22;2869;50.432;8.680;2023-04-24T03:40:54;9.90;99.90
5689;DHT22;2869;50.432;8.680;2023-04-24T03:43:20;9.90;99.90
5689;DHT22;2869;50.432;8.680;2023-04-24T03:45:47;9.90;99.90
5689;DHT22;2869;50.432;8.680;2023-04-24T03:48:13;9.90;99.90
5689;DHT22;2869;50.432;8.680;2023-04-24T03:50:40;9.90;99.90
5689;DHT22;2869;50.432;8.680;2023-04-24T03:53:07;9.90;99.90
5689;DHT22;2869;50.432;8.680;2023-04-24T03:55:34;9.90;99.90
5689;DHT22;2869;50.432;8.680;2023-04-24T03:58:02;9.90;99.90
5689;DHT22;2869;50.432;8.680;2023-04-24T04:00:29;9.80;99.90
5689;DHT22;2869;50.432;8.680;2023-04-24T04:02:57;9.80;99.90
5689;DHT22;2869;50.432;8.680;2023-04-24T04:05:23;9.70;99.90
5689;DHT22;2869;50.432;8.680;2023-04-24T04:07:50;9.70;99.90
5689;DHT22;2869;50.432;8.680;2023-04-24T04:10:16;9.70;99.90
5689;DHT22;2869;50.432;8.680;2023-04-24T04:12:43;9.60;99.90
5689;DHT22;2869;50.432;8.680;2023-04-24T04:15:11;9.60;99.90
5689;DHT22;2869;50.432;8.680;2023-04-24T04:17:38;9.50;99.90
5689;DHT22;2869;50.432;8.680;2023-04-24T04:20:06;9.50;99.90
5689;DHT22;2869;50.432;8.680;2023-04-24T04:22:35;9.40;99.90
5689;DHT22;2869;50.432;8.680;2023-04-24T04:25:02;9.30;99.90
5689;DHT22;2869;50.432;8.680;2023-04-24T04:27:28;9.30;99.90
5689;DHT22;2869;50.432;8.680;2023-04-24T04:29:57;9.30;99.90
5689;DHT22;2869;50.432;8.680;2023-04-24T04:32:25;9.20;99.90
5689;DHT22;2869;50.432;8.680;2023-04-24T04:34:52;9.20;99.90
5689;DHT22;2869;50.432;8.680;2023-04-24T04:37:19;9.20;99.90
5689;DHT22;2869;50.432;8.680;2023-04-24T04:39:46;9.20;99.90
5689;DHT22;2869;50.432;8.680;2023-04-24T04:42:12;9.10;99.90
5689;DHT22;2869;50.432;8.680;2023-04-24T04:44:40;9.10;99.90
5689;DHT22;2869;50.432;8.680;2023-04-24T04:47:08;9.00;99.90
5689;DHT22;2869;50.432;8.680;2023-04-24T04:49:37;9.00;99.90
5689;DHT22;2869;50.432;8.680;2023-04-24T04:52:04;9.00;99.90
5689;DHT22;2869;50.432;8.680;2023-04-24T04:54:30;8.90;99.90
5689;DHT22;2869;50.432;8.680;2023-04-24T04:56:57;8.90;99.90
5689;DHT22;2869;50.432;8.680;2023-04-24T04:59:24;8.90;99.90
5689;DHT22;2869;50.432;8.680;2023-04-24T05:01:51;8.90;99.90
5689;DHT22;2869;50.432;8.680;2023-04-24T05:04:17;8.90;99.90
5689;DHT22;2869;50.432;8.680;2023-04-24T05:06:45;8.90;99.90
5689;DHT22;2869;50.432;8.680;2023-04-24T05:09:12;8.90;99.90
5689;DHT22;2869;50.432;8.680;2023-04-24T05:11:39;8.90;99.90
5689;DHT22;2869;50.432;8.680;2023-04-24T05:14:05;8.90;99.90
5689;DHT22;2869;50.432;8.680;2023-04-24T05:16:32;8.90;99.90
5689;DHT22;2869;50.432;8.680;2023-04-24T05:18:59;8.90;99.90
5689;DHT22;2869;50.432;8.680;2023-04-24T05:21:25;8.90;99.90
5689;DHT22;2869;50.432;8.680;2023-04-24T05:23:53;9.00;99.90
5689;DHT22;2869;50.432;8.680;2023-04-24T05:26:20;9.00;99.90
5689;DHT22;2869;50.432;8.680;2023-04-24T05:28:48;9.00;99.90
5689;DHT22;2869;50.432;8.680;2023-04-24T05:31:15;9.20;99.90
5689;DHT22;2869;50.432;8.680;2023-04-24T05:33:43;9.30;99.90
5689;DHT22;2869;50.432;8.680;2023-04-24T05:36:09;9.30;99.90
5689;DHT22;2869;50.432;8.680;2023-04-24T05:38:36;9.40;99.90
5689;DHT22;2869;50.432;8.680;2023-04-24T05:41:04;9.50;99.90
5689;DHT22;2869;50.432;8.680;2023-04-24T05:43:31;9.60;99.90
5689;DHT22;2869;50.432;8.680;2023-04-24T05:45:57;9.90;99.90
5689;DHT22;2869;50.432;8.680;2023-04-24T05:48:24;10.00;99.90
5689;DHT22;2869;50.432;8.680;2023-04-24T05:50:51;10.20;99.90
5689;DHT22;2869;50.432;8.680;2023-04-24T05:53:18;10.50;99.90
5689;DHT22;2869;50.432;8.680;2023-04-24T05:55:45;10.70;99.90
5689;DHT22;2869;50.432;8.680;2023-04-24T05:58:13;10.80;99.90
5689;DHT22;2869;50.432;8.680;2023-04-24T06:00:40;10.90;99.90
5689;DHT22;2869;50.432;8.680;2023-04-24T06:03:09;10.90;99.90
5689;DHT22;2869;50.432;8.680;2023-04-24T06:05:36;10.90;99.90
5689;DHT22;2869;50.432;8.680;2023-04-24T06:08:03;10.60;99.90
5689;DHT22;2869;50.432;8.680;2023-04-24T06:10:29;10.10;99.90
5689;DHT22;2869;50.432;8.680;2023-04-24T06:12:56;9.90;99.90
5689;DHT22;2869;50.432;8.680;2023-04-24T06:15:28;9.90;99.90
5689;DHT22;2869;50.432;8.680;2023-04-24T06:17:55;10.00;99.90
5689;DHT22;2869;50.432;8.680;2023-04-24T06:20:22;10.10;99.90
5689;DHT22;2869;50.432;8.680;2023-04-24T06:22:49;10.20;99.90
5689;DHT22;2869;50.432;8.680;2023-04-24T06:25:16;10.20;99.90
5689;DHT22;2869;50.432;8.680;2023-04-24T06:27:42;10.40;99.90
5689;DHT22;2869;50.432;8.680;2023-04-24T06:30:10;10.40;99.90
5689;DHT22;2869;50.432;8.680;2023-04-24T06:32:38;10.40;99.90
5689;DHT22;2869;50.432;8.680;2023-04-24T06:35:06;10.50;99.90
5689;DHT22;2869;50.432;8.680;2023-04-24T06:37:33;10.60;99.90
5689;DHT22;2869;50.432;8.680;2023-04-24T06:40:00;10.50;99.90
5689;DHT22;2869;50.432;8.680;2023-04-24T06:42:26;10.60;99.90
5689;DHT22;2869;50.432;8.680;2023-04-24T06:44:53;10.50;99.90
5689;DHT22;2869;50.432;8.680;2023-04-24T06:47:20;10.50;99.90
5689;DHT22;2869;50.432;8.680;2023-04-24T06:49:48;10.60;99.90
5689;DHT22;2869;50.432;8.680;2023-04-24T06:52:16;10.70;99.90
5689;DHT22;2869;50.432;8.680;2023-04-24T06:54:43;10.90;99.90
5689;DHT22;2869;50.432;8.680;2023-04-24T06:57:09;11.00;99.90
5689;DHT22;2869;50.432;8.680;2023-04-24T06:59:36;11.30;99.90
5689;DHT22;2869;50.432;8.680;2023-04-24T07:02:03;11.40;99.90
5689;DHT22;2869;50.432;8.680;2023-04-24T07:04:30;11.40;99.90
5689;DHT22;2869;50.432;8.680;2023-04-24T07:06:58;11.30;99.90
5689;DHT22;2869;50.432;8.680;2023-04-24T07:09:25;11.60;99.90
5689;DHT22;2869;50.432;8.680;2023-04-24T07:11:52;11.60;99.90
5689;DHT22;2869;50.432;8.680;2023-04-24T07:14:19;11.80;99.90
5689;DHT22;2869;50.432;8.680;2023-04-24T07:16:46;12.00;99.90
5689;DHT22;2869;50.432;8.680;2023-04-24T07:19:13;12.10;99.90
5689;DHT22;2869;50.432;8.680;2023-04-24T07:21:40;12.30;99.90
5689;DHT22;2869;50.432;8.680;2023-04-24T07:24:08;12.30;99.90
5689;DHT22;2869;50.432;8.680;2023-04-24T07:26:37;12.00;99.90
5689;DHT22;2869;50.432;8.680;2023-04-24T07:29:04;12.00;99.90
5689;DHT22;2869;50.432;8.680;2023-04-24T07:31:30;12.10;99.90
5689;DHT22;2869;50.432;8.680;2023-04-24T07:33:57;12.20;99.90
5689;DHT22;2869;50.432;8.680;2023-04-24T07:36:24;12.30;99.90
5689;DHT22;2869;50.432;8.680;2023-04-24T07:38:51;12.50;99.90
5689;DHT22;2869;50.432;8.680;2023-04-24T07:41:19;12.70;99.90
5689;DHT22;2869;50.432;8.680;2023-04-24T07:43:46;12.40;99.90
5689;DHT22;2869;50.432;8.680;2023-04-24T07:46:13;12.40;99.90
5689;DHT22;2869;50.432;8.680;2023-04-24T07:48:40;12.50;99.90
5689;DHT22;2869;50.432;8.680;2023-04-24T07:51:06;12.70;99.90
5689;DHT22;2869;50.432;8.680;2023-04-24T07:53:35;12.90;99.90
5689;DHT22;2869;50.432;8.680;2023-04-24T07:56:02;13.00;99.90
5689;DHT22;2869;50.432;8.680;2023-04-24T07:58:30;12.90;99.90
5689;DHT22;2869;50.432;8.680;2023-04-24T08:00:56;12.90;99.90
5689;DHT22;2869;50.432;8.680;2023-04-24T08:03:23;12.90;99.90
5689;DHT22;2869;50.432;8.680;2023-04-24T08:05:50;12.90;99.90
5689;DHT22;2869;50.432;8.680;2023-04-24T08:08:17;12.80;99.90
5689;DHT22;2869;50.432;8.680;2023-04-24T08:10:44;13.00;99.90
5689;DHT22;2869;50.432;8.680;2023-04-24T08:13:10;13.30;99.90
5689;DHT22;2869;50.432;8.680;2023-04-24T08:15:39;13.40;99.90
5689;DHT22;2869;50.432;8.680;2023-04-24T08:18:05;13.60;99.90
5689;DHT22;2869;50.432;8.680;2023-04-24T08:20:33;13.80;99.90
5689;DHT22;2869;50.432;8.680;2023-04-24T08:22:59;13.90;99.90
5689;DHT22;2869;50.432;8.680;2023-04-24T08:25:26;13.80;99.90
5689;DHT22;2869;50.432;8.680;2023-04-24T08:27:53;13.70;99.90
5689;DHT22;2869;50.432;8.680;2023-04-24T08:30:20;13.70;99.90
5689;DHT22;2869;50.432;8.680;2023-04-24T08:32:48;13.70;99.90
5689;DHT22;2869;50.432;8.680;2023-04-24T08:35:14;13.60;99.90
5689;DHT22;2869;50.432;8.680;2023-04-24T08:37:41;13.50;99.90
5689;DHT22;2869;50.432;8.680;2023-04-24T08:40:12;13.50;99.90
5689;DHT22;2869;50.432;8.680;2023-04-24T08:42:41;13.30;99.90
5689;DHT22;2869;50.432;8.680;2023-04-24T08:45:09;12.80;99.90
5689;DHT22;2869;50.432;8.680;2023-04-24T08:47:37;12.60;99.90
5689;DHT22;2869;50.432;8.680;2023-04-24T08:50:07;12.20;99.90
5689;DHT22;2869;50.432;8.680;2023-04-24T08:52:34;12.10;99.90
5689;DHT22;2869;50.432;8.680;2023-04-24T08:55:01;12.20;99.90
5689;DHT22;2869;50.432;8.680;2023-04-24T08:57:28;12.10;99.90
5689;DHT22;2869;50.432;8.680;2023-04-24T08:59:57;12.10;99.90
5689;DHT22;2869;50.432;8.680;2023-04-24T09:02:25;12.00;99.90
5689;DHT22;2869;50.432;8.680;2023-04-24T09:04:52;11.90;99.90
5689;DHT22;2869;50.432;8.680;2023-04-24T09:07:22;12.00;99.90
5689;DHT22;2869;50.432;8.680;2023-04-24T09:09:51;12.00;99.90
5689;DHT22;2869;50.432;8.680;2023-04-24T09:12:17;12.00;99.90
5689;DHT22;2869;50.432;8.680;2023-04-24T09:14:45;12.10;99.90
5689;DHT22;2869;50.432;8.680;2023-04-24T09:17:12;12.30;99.90
5689;DHT22;2869;50.432;8.680;2023-04-24T09:19:39;12.50;99.90
5689;DHT22;2869;50.432;8.680;2023-04-24T09:22:06;12.60;99.90
5689;DHT22;2869;50.432;8.680;2023-04-24T09:24:35;12.70;99.90
5689;DHT22;2869;50.432;8.680;2023-04-24T09:27:02;13.00;99.90
5689;DHT22;2869;50.432;8.680;2023-04-24T09:29:29;13.00;99.90
5689;DHT22;2869;50.432;8.680;2023-04-24T09:31:58;13.10;99.90
5689;DHT22;2869;50.432;8.680;2023-04-24T09:34:26;13.20;99.90
5689;DHT22;2869;50.432;8.680;2023-04-24T09:36:53;13.30;99.90
5689;DHT22;2869;50.432;8.680;2023-04-24T09:39:20;13.30;99.90
5689;DHT22;2869;50.432;8.680;2023-04-24T09:41:49;13.30;99.90
5689;DHT22;2869;50.432;8.680;2023-04-24T09:44:17;13.20;99.90
5689;DHT22;2869;50.432;8.680;2023-04-24T09:46:46;12.90;99.90
5689;DHT22;2869;50.432;8.680;2023-04-24T09:49:16;12.50;99.90
5689;DHT22;2869;50.432;8.680;2023-04-24T09:51:43;12.20;99.90
5689;DHT22;2869;50.432;8.680;2023-04-24T09:54:17;12.10;99.90
5689;DHT22;2869;50.432;8.680;2023-04-24T09:56:49;12.00;99.90
5689;DHT22;2869;50.432;8.680;2023-04-24T09:59:19;12.00;99.90
5689;DHT22;2869;50.432;8.680;2023-04-24T10:01:46;12.30;99.90
5689;DHT22;2869;50.432;8.680;2023-04-24T10:04:18;12.30;99.90
5689;DHT22;2869;50.432;8.680;2023-04-24T10:06:46;12.50;99.90
5689;DHT22;2869;50.432;8.680;2023-04-24T10:09:14;12.50;99.90
5689;DHT22;2869;50.432;8.680;2023-04-24T10:11:42;12.80;99.90
5689;DHT22;2869;50.432;8.680;2023-04-24T10:14:12;13.00;99.90
5689;DHT22;2869;50.432;8.680;2023-04-24T10:16:40;13.20;99.90
5689;DHT22;2869;50.432;8.680;2023-04-24T10:19:06;12.90;99.90
5689;DHT22;2869;50.432;8.680;2023-04-24T10:21:34;12.60;99.90
5689;DHT22;2869;50.432;8.680;2023-04-24T10:24:01;12.50;99.90
5689;DHT22;2869;50.432;8.680;2023-04-24T10:26:30;12.30;99.90
5689;DHT22;2869;50.432;8.680;2023-04-24T10:28:58;12.20;99.90
5689;DHT22;2869;50.432;8.680;2023-04-24T10:31:26;12.10;99.90
5689;DHT22;2869;50.432;8.680;2023-04-24T10:33:53;12.20;99.90
5689;DHT22;2869;50.432;8.680;2023-04-24T10:36:22;12.10;99.90
5689;DHT22;2869;50.432;8.680;2023-04-24T10:38:53;12.00;99.90
5689;DHT22;2869;50.432;8.680;2023-04-24T10:41:21;12.10;99.90
5689;DHT22;2869;50.432;8.680;2023-04-24T10:43:49;12.10;99.90
5689;DHT22;2869;50.432;8.680;2023-04-24T10:46:31;12.10;99.90
5689;DHT22;2869;50.432;8.680;2023-04-24T10:48:58;12.10;99.90
5689;DHT22;2869;50.432;8.680;2023-04-24T10:51:44;11.80;99.90
5689;DHT22;2869;50.432;8.680;2023-04-24T10:54:22;11.80;99.90
5689;DHT22;2869;50.432;8.680;2023-04-24T10:56:50;11.70;99.90
5689;DHT22;2869;50.432;8.680;2023-04-24T10:59:24;11.70;99.90
5689;DHT22;2869;50.432;8.680;2023-04-24T11:01:54;11.60;99.90
5689;DHT22;2869;50.432;8.680;2023-04-24T11:04:32;11.50;99.90
5689;DHT22;2869;50.432;8.680;2023-04-24T11:07:00;11.20;99.90
5689;DHT22;2869;50.432;8.680;2023-04-24T11:09:28;10.90;99.90
5689;DHT22;2869;50.432;8.680;2023-04-24T11:12:03;10.70;99.90
5689;DHT22;2869;50.432;8.680;2023-04-24T11:14:59;10.80;99.90
5689;DHT22;2869;50.432;8.680;2023-04-24T11:17:32;10.90;99.90
5689;DHT22;2869;50.432;8.680;2023-04-24T11:20:02;10.90;99.90
5689;DHT22;2869;50.432;8.680;2023-04-24T11:22:33;11.10;99.90
5689;DHT22;2869;50.432;8.680;2023-04-24T11:25:00;11.00;99.90
5689;DHT22;2869;50.432;8.680;2023-04-24T11:27:30;11.20;99.90
5689;DHT22;2869;50.432;8.680;2023-04-24T11:29:59;11.60;99.90
5689;DHT22;2869;50.432;8.680;2023-04-24T11:32:28;11.90;99.90
5689;DHT22;2869;50.432;8.680;2023-04-24T11:34:57;12.10;99.90
5689;DHT22;2869;50.432;8.680;2023-04-24T11:37:26;12.60;99.90
5689;DHT22;2869;50.432;8.680;2023-04-24T11:39:54;13.10;99.90
5689;DHT22;2869;50.432;8.680;2023-04-24T11:42:22;13.40;99.90
5689;DHT22;2869;50.432;8.680;2023-04-24T11:44:49;13.10;99.90
5689;DHT22;2869;50.432;8.680;2023-04-24T11:47:18;13.00;99.90
5689;DHT22;2869;50.432;8.680;2023-04-24T11:49:44;13.30;99.90
5689;DHT22;2869;50.432;8.680;2023-04-24T11:52:15;13.60;99.90
5689;DHT22;2869;50.432;8.680;2023-04-24T11:54:47;13.50;99.90
5689;DHT22;2869;50.432;8.680;2023-04-24T11:57:13;13.20;99.90
5689;DHT22;2869;50.432;8.680;2023-04-24T11:59:40;13.00;99.90
5689;DHT22;2869;50.432;8.680;2023-04-24T12:02:07;12.80;99.90
5689;DHT22;2869;50.432;8.680;2023-04-24T12:04:40;12.60;99.90
5689;DHT22;2869;50.432;8.680;2023-04-24T12:07:07;12.60;99.90
5689;DHT22;2869;50.432;8.680;2023-04-24T12:09:42;12.80;99.90
5689;DHT22;2869;50.432;8.680;2023-04-24T12:12:10;13.40;99.90
5689;DHT22;2869;50.432;8.680;2023-04-24T12:14:43;13.60;99.90
5689;DHT22;2869;50.432;8.680;2023-04-24T12:17:09;13.90;99.90
5689;DHT22;2869;50.432;8.680;2023-04-24T12:19:36;14.00;99.90
5689;DHT22;2869;50.432;8.680;2023-04-24T12:22:04;13.90;99.90
5689;DHT22;2869;50.432;8.680;2023-04-24T12:24:32;13.50;99.90
5689;DHT22;2869;50.432;8.680;2023-04-24T12:27:00;13.00;99.90
5689;DHT22;2869;50.432;8.680;2023-04-24T12:29:27;12.50;99.90
5689;DHT22;2869;50.432;8.680;2023-04-24T12:31:54;12.10;99.90
5689;DHT22;2869;50.432;8.680;2023-04-24T12:34:21;11.80;99.90
5689;DHT22;2869;50.432;8.680;2023-04-24T12:36:49;11.50;99.90
5689;DHT22;2869;50.432;8.680;2023-04-24T12:39:15;11.30;99.90
5689;DHT22;2869;50.432;8.680;2023-04-24T12:41:53;10.90;99.90
5689;DHT22;2869;50.432;8.680;2023-04-24T12:44:30;10.80;99.90
5689;DHT22;2869;50.432;8.680;2023-04-24T12:46:57;10.70;99.90
5689;DHT22;2869;50.432;8.680;2023-04-24T12:49:24;10.80;99.90
5689;DHT22;2869;50.432;8.680;2023-04-24T12:51:50;10.90;99.90
5689;DHT22;2869;50.432;8.680;2023-04-24T12:54:18;10.90;99.90
5689;DHT22;2869;50.432;8.680;2023-04-24T12:56:44;10.80;99.90
5689;DHT22;2869;50.432;8.680;2023-04-24T12:59:11;11.00;99.90
5689;DHT22;2869;50.432;8.680;2023-04-24T13:01:39;11.30;99.90
5689;DHT22;2869;50.432;8.680;2023-04-24T13:04:06;11.40;99.90
5689;DHT22;2869;50.432;8.680;2023-04-24T13:06:32;11.60;99.90
5689;DHT22;2869;50.432;8.680;2023-04-24T13:08:59;12.00;99.90
5689;DHT22;2869;50.432;8.680;2023-04-24T13:11:26;12.20;99.90
5689;DHT22;2869;50.432;8.680;2023-04-24T13:13:52;12.30;99.90
5689;DHT22;2869;50.432;8.680;2023-04-24T13:16:19;12.00;99.90
5689;DHT22;2869;50.432;8.680;2023-04-24T13:18:47;12.00;99.90
5689;DHT22;2869;50.432;8.680;2023-04-24T13:21:14;12.30;99.90
5689;DHT22;2869;50.432;8.680;2023-04-24T13:23:41;12.70;99.90
5689;DHT22;2869;50.432;8.680;2023-04-24T13:26:07;13.10;99.90
5689;DHT22;2869;50.432;8.680;2023-04-24T13:28:34;13.40;99.90
5689;DHT22;2869;50.432;8.680;2023-04-24T13:31:01;13.50;99.90
5689;DHT22;2869;50.432;8.680;2023-04-24T13:33:27;13.00;99.90
5689;DHT22;2869;50.432;8.680;2023-04-24T13:35:55;12.80;99.90
5689;DHT22;2869;50.432;8.680;2023-04-24T13:38:22;12.60;99.90
5689;DHT22;2869;50.432;8.680;2023-04-24T13:40:49;12.50;99.90
5689;DHT22;2869;50.432;8.680;2023-04-24T13:43:15;12.50;99.90
5689;DHT22;2869;50.432;8.680;2023-04-24T13:45:42;12.40;99.90
5689;DHT22;2869;50.432;8.680;2023-04-24T13:48:09;12.30;99.90
5689;DHT22;2869;50.432;8.680;2023-04-24T13:50:36;12.20;99.90
5689;DHT22;2869;50.432;8.680;2023-04-24T13:53:04;12.30;99.90
5689;DHT22;2869;50.432;8.680;2023-04-24T13:55:30;12.40;99.90
5689;DHT22;2869;50.432;8.680;2023-04-24T13:57:57;12.40;99.90
5689;DHT22;2869;50.432;8.680;2023-04-24T14:00:24;12.50;99.90
5689;DHT22;2869;50.432;8.680;2023-04-24T14:02:50;12.40;99.90
5689;DHT22;2869;50.432;8.680;2023-04-24T14:05:17;12.20;99.90
5689;DHT22;2869;50.432;8.680;2023-04-24T14:07:44;12.10;99.90
5689;DHT22;2869;50.432;8.680;2023-04-24T14:10:12;12.30;99.90
5689;DHT22;2869;50.432;8.680;2023-04-24T14:12:38;12.60;99.90
5689;DHT22;2869;50.432;8.680;2023-04-24T14:15:06;12.90;99.90
5689;DHT22;2869;50.432;8.680;2023-04-24T14:17:34;12.90;99.90
5689;DHT22;2869;50.432;8.680;2023-04-24T14:20:00;13.00;99.90
5689;DHT22;2869;50.432;8.680;2023-04-24T14:22:28;13.50;99.90
5689;DHT22;2869;50.432;8.680;2023-04-24T14:24:55;13.80;99.90
5689;DHT22;2869;50.432;8.680;2023-04-24T14:27:24;14.10;99.90
5689;DHT22;2869;50.432;8.680;2023-04-24T14:29:51;14.30;99.90
5689;DHT22;2869;50.432;8.680;2023-04-24T14:32:18;14.70;99.90
5689;DHT22;2869;50.432;8.680;2023-04-24T14:34:45;14.90;99.90
5689;DHT22;2869;50.432;8.680;2023-04-24T14:37:11;14.80;99.90
5689;DHT22;2869;50.432;8.680;2023-04-24T14:39:38;15.00;99.90
5689;DHT22;2869;50.432;8.680;2023-04-24T14:42:05;15.00;99.90
5689;DHT22;2869;50.432;8.680;2023-04-24T14:44:33;14.90;99.90
5689;DHT22;2869;50.432;8.680;2023-04-24T14:46:59;15.00;99.90
5689;DHT22;2869;50.432;8.680;2023-04-24T14:49:26;15.00;99.90
5689;DHT22;2869;50.432;8.680;2023-04-24T14:51:53;15.20;99.90
5689;DHT22;2869;50.432;8.680;2023-04-24T14:54:19;15.00;99.90
5689;DHT22;2869;50.432;8.680;2023-04-24T14:56:48;14.90;99.90
5689;DHT22;2869;50.432;8.680;2023-04-24T14:59:15;14.60;99.90
5689;DHT22;2869;50.432;8.680;2023-04-24T15:01:43;14.20;99.90
5689;DHT22;2869;50.432;8.680;2023-04-24T15:04:10;14.00;99.90
5689;DHT22;2869;50.432;8.680;2023-04-24T15:06:37;13.90;99.90
5689;DHT22;2869;50.432;8.680;2023-04-24T15:09:03;13.90;99.90
5689;DHT22;2869;50.432;8.680;2023-04-24T15:11:30;14.10;99.90
5689;DHT22;2869;50.432;8.680;2023-04-24T15:13:56;14.00;99.90
5689;DHT22;2869;50.432;8.680;2023-04-24T15:16:23;13.90;99.90
5689;DHT22;2869;50.432;8.680;2023-04-24T15:18:51;13.80;99.90
5689;DHT22;2869;50.432;8.680;2023-04-24T15:21:18;13.50;99.90
5689;DHT22;2869;50.432;8.680;2023-04-24T15:23:45;13.40;99.90
5689;DHT22;2869;50.432;8.680;2023-04-24T15:26:11;13.40;99.90
5689;DHT22;2869;50.432;8.680;2023-04-24T15:28:38;13.60;99.90
5689;DHT22;2869;50.432;8.680;2023-04-24T15:31:04;13.80;99.90
5689;DHT22;2869;50.432;8.680;2023-04-24T15:33:31;14.00;99.90
5689;DHT22;2869;50.432;8.680;2023-04-24T15:35:59;14.10;99.90
5689;DHT22;2869;50.432;8.680;2023-04-24T15:38:26;14.00;99.90
5689;DHT22;2869;50.432;8.680;2023-04-24T15:40:52;13.70;99.90
5689;DHT22;2869;50.432;8.680;2023-04-24T15:43:19;13.50;99.90
5689;DHT22;2869;50.432;8.680;2023-04-24T15:45:45;13.40;99.90
5689;DHT22;2869;50.432;8.680;2023-04-24T15:48:12;13.30;99.90
5689;DHT22;2869;50.432;8.680;2023-04-24T15:50:39;13.20;99.90
5689;DHT22;2869;50.432;8.680;2023-04-24T15:53:07;13.00;99.90
5689;DHT22;2869;50.432;8.680;2023-04-24T15:55:34;12.80;99.90
5689;DHT22;2869;50.432;8.680;2023-04-24T15:58:01;12.80;99.90
5689;DHT22;2869;50.432;8.680;2023-04-24T16:00:28;12.60;99.90
5689;DHT22;2869;50.432;8.680;2023-04-24T16:02:59;12.50;99.90
5689;DHT22;2869;50.432;8.680;2023-04-24T16:05:26;12.50;99.90